Time;durP1;ratioP1;P1;durP2;ratioP2;P2;SDS_P1;SDS_P2;PMS_P1;PMS_P2;Temp;Humidity;BMP_temperature;BMP_pressure;BME280_temperature;BME280_humidity;BME280_pressure;Samples;Min_cycle;Max_cycle;Signal;HPM_P1;HPM_P2
2021/08/12 00:00:55;;;;;;;18.88;10.18;;;;;;;;;;4821494;29;20034;-73
2021/08/12 00:03:20;;;;;;;16.35;9.55;;;;;;;;;;4820223;29;20077;-73
2021/08/12 00:05:46;;;;;;;16.98;9.13;;;;;;;;;;4821497;29;20035;-74
2021/08/12 00:08:11;;;;;;;20.05;9.25;;;;;;;;;;4820048;29;20050;-73
2021/08/12 00:10:37;;;;;;;20.67;9.07;;;;;;;;;;4821479;29;20502;-73
2021/08/12 00:13:02;;;;;;;17.88;9.32;;;;;;;;;;4821428;29;20030;-73
2021/08/12 00:15:28;;;;;;;16.08;9.07;;;;;;;;;;4821352;29;20042;-74
2021/08/12 00:17:53;;;;;;;24.02;10.30;;;;;;;;;;4820052;29;20036;-73
2021/08/12 00:20:19;;;;;;;19.73;9.65;;;;;;;;;;4821009;29;20034;-73
2021/08/12 00:22:44;;;;;;;20.52;10.07;;;;;;;;;;4819839;29;20073;-73
2021/08/12 00:25:10;;;;;;;20.15;9.13;;;;;;;;;;4819875;29;20061;-73
2021/08/12 00:27:35;;;;;;;16.05;8.90;;;;;;;;;;4821240;29;20045;-73
2021/08/12 00:30:01;;;;;;;20.50;10.15;;;;;;;;;;4821007;29;20286;-72
2021/08/12 00:32:26;;;;;;;24.42;10.45;;;;;;;;;;4820110;29;20034;-72
2021/08/12 00:34:52;;;;;;;16.88;9.45;;;;;;;;;;4819827;29;20030;-73
2021/08/12 00:37:18;;;;;;;23.15;9.65;;;;;;;;;;4820316;29;20117;-73
2021/08/12 00:39:43;;;;;;;19.42;10.18;;;;;;;;;;4820575;29;20033;-73
2021/08/12 00:42:09;;;;;;;18.10;9.63;;;;;;;;;;4821615;29;20027;-73
2021/08/12 00:44:35;;;;;;;20.85;10.25;;;;;;;;;;4820389;29;20044;-72
2021/08/12 00:47:00;;;;;;;22.10;10.05;;;;;;;;;;4820562;29;20023;-73
2021/08/12 00:49:26;;;;;;;21.75;9.10;;;;;;;;;;4835297;29;20045;-73
2021/08/12 00:51:52;;;;;;;16.40;9.38;;;;;;;;;;4821502;29;20038;-73
2021/08/12 00:54:19;;;;;;;23.40;10.82;;;;;;;;;;4820227;29;20026;-73
2021/08/12 00:56:47;;;;;;;19.75;9.75;;;;;;;;;;4821451;29;20038;-73
2021/08/12 00:59:13;;;;;;;17.67;9.23;;;;;;;;;;4821220;29;20022;-74
2021/08/12 01:01:38;;;;;;;17.55;8.98;;;;;;;;;;4820433;29;20031;-73
2021/08/12 01:04:04;;;;;;;17.65;9.57;;;;;;;;;;4820096;29;20240;-74
2021/08/12 01:06:47;;;;;;;17.95;9.30;;;;;;;;;;4819919;29;20069;-73
2021/08/12 01:09:23;;;;;;;18.27;9.70;;;;;;;;;;4821193;29;20502;-73
2021/08/12 01:11:57;;;;;;;22.40;11.30;;;;;;;;;;4805393;29;20037;-72
2021/08/12 01:14:35;;;;;;;24.67;10.02;;;;;;;;;;4819676;29;20062;-73
2021/08/12 01:17:09;;;;;;;19.00;9.73;;;;;;;;;;4821158;29;20027;-74
2021/08/12 01:20:14;;;;;;;19.60;9.23;;;;;;;;;;4835226;29;20035;-73
2021/08/12 01:22:46;;;;;;;19.17;9.43;;;;;;;;;;4802277;29;20046;-73
2021/08/12 01:25:26;;;;;;;19.90;8.88;;;;;;;;;;4824481;29;20038;-73
2021/08/12 01:27:54;;;;;;;21.98;11.30;;;;;;;;;;4824670;29;20037;-73
2021/08/12 01:30:25;;;;;;;19.67;10.35;;;;;;;;;;4824529;29;20038;-74
2021/08/12 01:33:27;;;;;;;18.98;8.60;;;;;;;;;;4822807;29;20031;-75
2021/08/12 01:35:55;;;;;;;17.02;8.57;;;;;;;;;;4822504;29;20046;-75
2021/08/12 01:38:25;;;;;;;20.77;9.77;;;;;;;;;;4823960;29;20127;-73
2021/08/12 01:40:51;;;;;;;20.48;9.43;;;;;;;;;;4824341;29;20037;-73
2021/08/12 01:43:20;;;;;;;20.73;9.75;;;;;;;;;;4822918;29;20031;-73
2021/08/12 01:45:51;;;;;;;22.08;8.75;;;;;;;;;;4822906;29;20106;-73
2021/08/12 01:48:17;;;;;;;19.35;8.82;;;;;;;;;;4824302;29;20122;-73
2021/08/12 01:50:44;;;;;;;15.88;7.97;;;;;;;;;;4822936;29;20034;-73
2021/08/12 01:53:11;;;;;;;18.48;8.75;;;;;;;;;;4837918;29;20430;-73
2021/08/12 01:55:37;;;;;;;18.77;8.43;;;;;;;;;;4822716;29;20038;-73
2021/08/12 01:58:04;;;;;;;17.25;8.77;;;;;;;;;;4837956;29;20034;-74
2021/08/12 02:00:30;;;;;;;16.13;8.32;;;;;;;;;;4823581;29;20087;-74
2021/08/12 02:02:58;;;;;;;19.17;9.30;;;;;;;;;;4823771;29;20034;-74
2021/08/12 02:05:25;;;;;;;16.48;9.02;;;;;;;;;;4823204;29;20026;-74
2021/08/12 02:07:51;;;;;;;17.60;8.60;;;;;;;;;;4823461;29;20105;-71
2021/08/12 02:10:17;;;;;;;18.67;8.80;;;;;;;;;;4823695;29;20058;-71
2021/08/12 02:12:44;;;;;;;18.20;9.05;;;;;;;;;;4822478;29;20058;-72
2021/08/12 02:15:11;;;;;;;26.67;9.85;;;;;;;;;;4823212;29;20050;-70
2021/08/12 02:17:37;;;;;;;18.02;8.18;;;;;;;;;;4823292;29;20030;-70
2021/08/12 02:20:08;;;;;;;17.48;8.40;;;;;;;;;;4823281;29;20041;-71
2021/08/12 02:22:37;;;;;;;19.53;9.10;;;;;;;;;;4823372;29;20479;-72
2021/08/12 02:25:13;;;;;;;19.80;9.25;;;;;;;;;;4821796;29;20031;-72
2021/08/12 02:27:44;;;;;;;18.67;8.55;;;;;;;;;;4821857;29;20103;-73
2021/08/12 02:30:11;;;;;;;18.67;9.38;;;;;;;;;;4821545;29;20030;-72
2021/08/12 02:32:38;;;;;;;19.13;8.80;;;;;;;;;;4821937;29;20091;-72
2021/08/12 02:35:06;;;;;;;15.43;8.60;;;;;;;;;;4820792;29;20121;-73
2021/08/12 02:37:34;;;;;;;17.77;8.02;;;;;;;;;;4822896;29;20143;-73
2021/08/12 02:40:01;;;;;;;15.68;8.70;;;;;;;;;;4822051;29;20030;-73
2021/08/12 02:42:26;;;;;;;15.98;8.57;;;;;;;;;;4823659;29;20038;-73
2021/08/12 02:44:53;;;;;;;18.58;8.90;;;;;;;;;;4821923;29;20402;-73
2021/08/12 02:47:20;;;;;;;19.02;9.60;;;;;;;;;;4822124;29;20038;-73
2021/08/12 02:49:51;;;;;;;17.13;8.25;;;;;;;;;;4837669;29;20027;-72
2021/08/12 02:52:18;;;;;;;20.10;9.07;;;;;;;;;;4821713;29;20026;-73
2021/08/12 02:54:46;;;;;;;14.48;8.15;;;;;;;;;;4821856;29;20101;-73
2021/08/12 02:57:13;;;;;;;19.95;9.25;;;;;;;;;;4821630;29;20042;-73
2021/08/12 02:59:41;;;;;;;15.70;9.85;;;;;;;;;;4823245;29;20057;-73
2021/08/12 03:02:07;;;;;;;17.38;8.65;;;;;;;;;;4822581;29;20475;-73
2021/08/12 03:04:33;;;;;;;16.33;8.93;;;;;;;;;;4823244;29;20099;-73
2021/08/12 03:06:59;;;;;;;26.20;8.57;;;;;;;;;;4821914;29;20467;-72
2021/08/12 03:09:26;;;;;;;15.65;8.73;;;;;;;;;;4821460;29;20030;-73
2021/08/12 03:11:53;;;;;;;21.63;9.00;;;;;;;;;;4821486;29;20023;-72
2021/08/12 03:14:19;;;;;;;14.43;8.52;;;;;;;;;;4821789;29;20167;-73
2021/08/12 03:16:45;;;;;;;15.48;8.35;;;;;;;;;;4822815;29;20042;-73
2021/08/12 03:19:11;;;;;;;19.48;9.95;;;;;;;;;;4823005;29;20038;-74
2021/08/12 03:21:37;;;;;;;21.25;9.10;;;;;;;;;;4821430;29;20393;-72
2021/08/12 03:24:04;;;;;;;22.33;9.73;;;;;;;;;;4821807;29;20034;-73
2021/08/12 03:26:31;;;;;;;15.50;9.43;;;;;;;;;;4822402;29;20026;-72
2021/08/12 03:28:58;;;;;;;17.30;8.75;;;;;;;;;;4822558;29;20491;-73
2021/08/12 03:31:23;;;;;;;17.52;9.40;;;;;;;;;;4820829;29;20450;-73
2021/08/12 03:33:49;;;;;;;27.20;9.20;;;;;;;;;;4821265;29;20118;-74
2021/08/12 03:36:14;;;;;;;15.98;8.65;;;;;;;;;;4820892;29;20053;-72
2021/08/12 03:38:40;;;;;;;14.18;8.13;;;;;;;;;;4822288;29;20058;-73
2021/08/12 03:41:05;;;;;;;16.33;9.23;;;;;;;;;;4822238;29;20511;-73
2021/08/12 03:43:31;;;;;;;23.98;8.82;;;;;;;;;;4822150;29;20038;-73
2021/08/12 03:45:57;;;;;;;20.30;9.23;;;;;;;;;;4822023;29;20127;-73
2021/08/12 03:48:23;;;;;;;20.85;9.70;;;;;;;;;;4820635;29;20129;-73
2021/08/12 03:50:48;;;;;;;19.77;8.35;;;;;;;;;;4820919;29;20038;-73
2021/08/12 03:53:14;;;;;;;18.67;8.95;;;;;;;;;;4822070;29;20045;-73
2021/08/12 03:55:39;;;;;;;20.70;8.75;;;;;;;;;;4820765;29;20056;-73
2021/08/12 03:58:05;;;;;;;18.52;10.00;;;;;;;;;;4821973;29;20049;-72
2021/08/12 04:00:30;;;;;;;26.30;10.00;;;;;;;;;;4820571;29;20034;-72
2021/08/12 04:02:56;;;;;;;21.83;10.35;;;;;;;;;;4820741;29;20050;-72
2021/08/12 04:05:21;;;;;;;18.15;9.43;;;;;;;;;;4821891;29;20034;-73
2021/08/12 04:07:47;;;;;;;18.95;9.18;;;;;;;;;;4821821;29;20039;-73
2021/08/12 04:10:12;;;;;;;18.05;9.20;;;;;;;;;;4821883;29;20034;-73
2021/08/12 04:12:38;;;;;;;17.02;9.15;;;;;;;;;;4820748;29;20034;-73
2021/08/12 04:15:04;;;;;;;17.95;9.32;;;;;;;;;;4820603;29;20039;-73
2021/08/12 04:17:29;;;;;;;14.27;8.57;;;;;;;;;;4820432;29;20034;-73
2021/08/12 04:19:55;;;;;;;20.27;10.13;;;;;;;;;;4820719;29;20037;-73
2021/08/12 04:22:20;;;;;;;21.88;10.30;;;;;;;;;;4821813;29;20122;-72
2021/08/12 04:24:46;;;;;;;25.10;10.50;;;;;;;;;;4822739;29;20045;-72
2021/08/12 04:27:14;;;;;;;16.92;9.82;;;;;;;;;;4822057;29;20472;-74
2021/08/12 04:29:40;;;;;;;16.60;9.93;;;;;;;;;;4820604;29;20463;-73
2021/08/12 04:32:06;;;;;;;17.80;9.15;;;;;;;;;;4820712;29;20057;-72
2021/08/12 04:34:32;;;;;;;28.40;10.95;;;;;;;;;;4821584;29;20077;-72
2021/08/12 04:36:58;;;;;;;23.65;9.43;;;;;;;;;;4821650;29;20061;-73
2021/08/12 04:39:23;;;;;;;18.33;9.52;;;;;;;;;;4820068;29;20093;-73
2021/08/12 04:41:49;;;;;;;24.60;10.85;;;;;;;;;;4820222;29;20042;-72
2021/08/12 04:44:14;;;;;;;20.70;10.25;;;;;;;;;;4821237;29;20038;-72
2021/08/12 04:46:40;;;;;;;18.60;9.38;;;;;;;;;;4821459;29;20095;-73
2021/08/12 04:49:06;;;;;;;23.48;10.75;;;;;;;;;;4819917;29;20037;-73
2021/08/12 04:51:32;;;;;;;25.25;12.77;;;;;;;;;;4821001;29;20166;-73
2021/08/12 04:53:58;;;;;;;21.50;10.50;;;;;;;;;;4820074;29;20067;-73
2021/08/12 04:56:23;;;;;;;22.23;10.90;;;;;;;;;;4821603;29;20034;-73
2021/08/12 04:58:49;;;;;;;17.30;9.70;;;;;;;;;;4820525;29;20315;-73
2021/08/12 05:01:19;;;;;;;22.30;10.80;;;;;;;;;;4821253;29;20030;-74
2021/08/12 05:03:44;;;;;;;38.78;19.17;;;;;;;;;;4820224;29;20034;-73
2021/08/12 05:06:12;;;;;;;53.35;24.70;;;;;;;;;;4819521;29;20037;-73
2021/08/12 05:08:37;;;;;;;19.55;10.32;;;;;;;;;;4820746;29;20039;-73
2021/08/12 05:11:10;;;;;;;22.30;10.88;;;;;;;;;;4820773;29;20491;-72
2021/08/12 05:13:37;;;;;;;19.75;10.68;;;;;;;;;;4820542;29;20027;-73
2021/08/12 05:16:03;;;;;;;21.98;11.65;;;;;;;;;;4834614;29;20030;-71
2021/08/12 05:18:28;;;;;;;23.10;11.05;;;;;;;;;;4834565;29;20057;-72
2021/08/12 05:20:55;;;;;;;26.00;12.20;;;;;;;;;;4820829;29;20046;-73
2021/08/12 05:23:21;;;;;;;20.80;11.55;;;;;;;;;;4819105;29;20034;-71
2021/08/12 05:25:46;;;;;;;29.45;12.25;;;;;;;;;;4834147;29;20388;-72
2021/08/12 05:28:12;;;;;;;20.02;10.70;;;;;;;;;;4820514;29;20105;-72
2021/08/12 05:30:38;;;;;;;24.95;11.23;;;;;;;;;;4818785;29;20027;-71
2021/08/12 05:33:03;;;;;;;29.08;10.70;;;;;;;;;;4820538;29;20350;-73
2021/08/12 05:35:29;;;;;;;24.55;11.55;;;;;;;;;;4818694;29;20038;-71
2021/08/12 05:37:54;;;;;;;27.20;12.18;;;;;;;;;;4821134;29;20616;-72
2021/08/12 05:40:20;;;;;;;30.88;10.82;;;;;;;;;;4818659;29;20057;-71
2021/08/12 05:42:45;;;;;;;23.42;11.02;;;;;;;;;;4818451;29;20042;-73
2021/08/12 05:45:11;;;;;;;22.80;11.35;;;;;;;;;;4823399;29;20371;-72
2021/08/12 05:47:37;;;;;;;26.48;10.18;;;;;;;;;;4819741;29;20039;-72
2021/08/12 05:50:03;;;;;;;26.20;11.75;;;;;;;;;;4817197;29;20038;-72
2021/08/12 05:52:29;;;;;;;22.98;12.07;;;;;;;;;;4820588;29;20038;-70
2021/08/12 05:54:54;;;;;;;23.15;12.05;;;;;;;;;;4814165;29;20053;-73
2021/08/12 05:57:20;;;;;;;24.98;12.75;;;;;;;;;;4820035;29;20066;-74
2021/08/12 05:59:45;;;;;;;28.42;11.75;;;;;;;;;;4816815;29;20596;-71
2021/08/12 06:02:12;;;;;;;29.73;12.45;;;;;;;;;;4830159;29;20035;-71
2021/08/12 06:04:37;;;;;;;25.58;12.05;;;;;;;;;;4809195;29;20053;-71
2021/08/12 06:07:03;;;;;;;26.15;11.20;;;;;;;;;;4818513;29;20038;-72
2021/08/12 06:09:29;;;;;;;26.88;12.05;;;;;;;;;;4821597;29;20042;-71
2021/08/12 06:11:55;;;;;;;25.65;14.88;;;;;;;;;;4832977;29;20099;-73
2021/08/12 06:14:20;;;;;;;32.63;12.20;;;;;;;;;;4827540;29;20090;-72
2021/08/12 06:16:46;;;;;;;22.80;10.68;;;;;;;;;;4821755;29;20170;-73
2021/08/12 06:19:12;;;;;;;22.38;12.65;;;;;;;;;;4845601;29;20120;-72
2021/08/12 06:21:38;;;;;;;26.55;12.13;;;;;;;;;;4843881;29;20041;-72
2021/08/12 06:24:04;;;;;;;26.90;12.70;;;;;;;;;;4829915;29;20034;-71
2021/08/12 06:26:30;;;;;;;23.63;12.98;;;;;;;;;;4832143;29;20374;-72
2021/08/12 06:28:55;;;;;;;27.67;12.98;;;;;;;;;;4830000;29;20391;-71
2021/08/12 06:31:21;;;;;;;24.38;12.48;;;;;;;;;;4828922;29;20431;-72
2021/08/12 06:33:46;;;;;;;23.20;12.60;;;;;;;;;;4828514;29;20041;-73
2021/08/12 06:36:12;;;;;;;30.67;13.02;;;;;;;;;;4833937;29;20056;-71
2021/08/12 06:38:38;;;;;;;30.15;12.77;;;;;;;;;;4829614;29;20481;-73
2021/08/12 06:41:03;;;;;;;28.17;13.30;;;;;;;;;;4812954;29;20026;-73
2021/08/12 06:43:29;;;;;;;28.60;13.10;;;;;;;;;;4828437;29;20035;-71
2021/08/12 06:45:55;;;;;;;31.98;13.23;;;;;;;;;;4819283;29;20044;-73
2021/08/12 06:48:22;;;;;;;38.17;13.43;;;;;;;;;;4828434;29;20396;-75
2021/08/12 06:50:47;;;;;;;32.45;15.95;;;;;;;;;;4813979;29;20041;-73
2021/08/12 06:53:13;;;;;;;26.15;13.20;;;;;;;;;;4815605;29;20026;-71
2021/08/12 06:55:39;;;;;;;34.22;15.23;;;;;;;;;;4813148;29;20038;-72
2021/08/12 06:58:04;;;;;;;29.98;12.98;;;;;;;;;;4816411;29;20495;-72
2021/08/12 07:00:30;;;;;;;41.72;14.80;;;;;;;;;;4810584;29;20191;-74
2021/08/12 07:02:56;;;;;;;29.02;14.30;;;;;;;;;;4812300;29;20042;-72
2021/08/12 07:06:17;;;;;;;31.13;13.07;;;;;;;;;;4816626;29;20071;-72
2021/08/12 07:08:43;;;;;;;27.13;13.77;;;;;;;;;;4820882;29;20042;-72
2021/08/12 07:11:09;;;;;;;34.13;14.23;;;;;;;;;;4819543;29;20047;-74
2021/08/12 07:13:34;;;;;;;33.55;13.95;;;;;;;;;;4816046;29;20336;-71
2021/08/12 07:16:03;;;;;;;31.90;15.63;;;;;;;;;;4813133;29;20119;-73
2021/08/12 07:18:29;;;;;;;27.75;14.65;;;;;;;;;;4820294;29;20065;-73
2021/08/12 07:20:54;;;;;;;36.92;13.50;;;;;;;;;;4822411;29;20058;-73
2021/08/12 07:23:20;;;;;;;33.10;15.43;;;;;;;;;;4820486;29;20475;-72
2021/08/12 07:25:45;;;;;;;29.48;15.57;;;;;;;;;;4814235;29;20120;-71
2021/08/12 07:28:12;;;;;;;32.28;15.80;;;;;;;;;;4817570;29;20038;-73
2021/08/12 07:30:38;;;;;;;37.33;15.88;;;;;;;;;;4820995;29;20500;-73
2021/08/12 07:33:04;;;;;;;37.67;15.25;;;;;;;;;;4813438;29;20114;-74
2021/08/12 07:35:30;;;;;;;42.53;25.20;;;;;;;;;;4814347;29;20383;-72
2021/08/12 07:37:55;;;;;;;30.67;16.52;;;;;;;;;;4816280;29;20117;-74
2021/08/12 07:40:21;;;;;;;27.70;13.40;;;;;;;;;;4821505;29;20145;-72
2021/08/12 07:42:47;;;;;;;21.75;12.82;;;;;;;;;;4813872;29;20106;-73
2021/08/12 07:45:13;;;;;;;25.08;11.95;;;;;;;;;;4811154;29;20504;-73
2021/08/12 07:47:39;;;;;;;31.02;12.88;;;;;;;;;;4819892;29;20045;-74
2021/08/12 07:50:10;;;;;;;27.23;13.88;;;;;;;;;;4811512;29;20038;-74
2021/08/12 07:52:42;;;;;;;23.55;13.85;;;;;;;;;;4826484;29;20030;-73
2021/08/12 07:55:09;;;;;;;27.05;11.88;;;;;;;;;;4823282;29;20506;-73
2021/08/12 07:57:34;;;;;;;22.10;12.32;;;;;;;;;;4812836;29;20052;-73
2021/08/12 08:00:00;;;;;;;19.08;11.30;;;;;;;;;;4813174;29;20039;-73
2021/08/12 08:02:25;;;;;;;32.75;12.32;;;;;;;;;;4807116;29;20451;-75
2021/08/12 08:04:51;;;;;;;21.35;14.18;;;;;;;;;;4825678;29;20053;-73
2021/08/12 08:07:16;;;;;;;28.00;12.90;;;;;;;;;;4813817;29;20042;-74
2021/08/12 08:09:42;;;;;;;19.33;12.23;;;;;;;;;;4814803;29;20045;-73
2021/08/12 08:12:09;;;;;;;26.63;11.32;;;;;;;;;;4825117;29;20102;-74
2021/08/12 08:14:34;;;;;;;22.17;11.85;;;;;;;;;;4812318;29;20042;-73
2021/08/12 08:17:00;;;;;;;22.70;12.30;;;;;;;;;;4811777;29;20064;-72
2021/08/12 08:19:26;;;;;;;26.08;12.18;;;;;;;;;;4811355;29;20418;-73
2021/08/12 08:21:51;;;;;;;30.13;10.82;;;;;;;;;;4811269;29;20034;-72
2021/08/12 08:24:17;;;;;;;17.20;9.63;;;;;;;;;;4809584;29;20038;-73
2021/08/12 08:26:42;;;;;;;23.10;10.25;;;;;;;;;;4812374;29;20404;-72
2021/08/12 08:29:07;;;;;;;22.40;11.05;;;;;;;;;;4813997;29;20065;-71
2021/08/12 08:31:33;;;;;;;28.70;10.25;;;;;;;;;;4810169;29;20034;-71
2021/08/12 08:34:07;;;;;;;27.90;10.18;;;;;;;;;;4812668;29;20044;-75
2021/08/12 08:36:32;;;;;;;18.67;9.23;;;;;;;;;;4808224;29;20042;-73
2021/08/12 08:38:58;;;;;;;22.23;9.15;;;;;;;;;;4812104;29;20731;-70
2021/08/12 08:41:24;;;;;;;22.35;9.95;;;;;;;;;;4812534;29;20036;-72
2021/08/12 08:43:53;;;;;;;17.67;11.32;;;;;;;;;;4811390;29;20036;-72
2021/08/12 08:46:27;;;;;;;23.58;9.52;;;;;;;;;;4812246;29;20045;-73
2021/08/12 08:48:56;;;;;;;21.60;10.73;;;;;;;;;;4811849;29;20471;-72
2021/08/12 08:51:22;;;;;;;22.63;10.95;;;;;;;;;;4808258;29;20034;-73
2021/08/12 08:53:48;;;;;;;18.98;8.95;;;;;;;;;;4810144;29;20404;-73
2021/08/12 08:56:16;;;;;;;22.35;10.93;;;;;;;;;;4810792;29;20386;-74
2021/08/12 08:58:42;;;;;;;16.23;9.32;;;;;;;;;;4812933;29;20034;-72
2021/08/12 09:01:07;;;;;;;21.00;10.25;;;;;;;;;;4811295;29;20046;-74
2021/08/12 09:03:34;;;;;;;18.25;9.88;;;;;;;;;;4815042;29;20105;-74
2021/08/12 09:06:00;;;;;;;21.30;10.50;;;;;;;;;;4830027;29;20035;-73
2021/08/12 09:08:25;;;;;;;19.65;10.95;;;;;;;;;;4830979;29;20746;-71
2021/08/12 09:10:51;;;;;;;26.73;11.95;;;;;;;;;;4815350;29;20506;-73
2021/08/12 09:13:16;;;;;;;23.08;10.40;;;;;;;;;;4810835;29;20030;-73
2021/08/12 09:15:43;;;;;;;25.02;13.30;;;;;;;;;;4813124;29;20033;-72
2021/08/12 09:18:24;;;;;;;31.40;16.85;;;;;;;;;;4813500;29;20038;-73
2021/08/12 09:20:53;;;;;;;26.17;9.90;;;;;;;;;;4813066;29;20034;-72
2021/08/12 09:23:27;;;;;;;15.23;9.40;;;;;;;;;;4823018;29;20034;-70
2021/08/12 09:25:55;;;;;;;24.90;9.93;;;;;;;;;;4814945;29;20425;-72
2021/08/12 09:28:27;;;;;;;18.85;9.48;;;;;;;;;;4810496;29;20034;-76
2021/08/12 09:31:02;;;;;;;41.38;11.63;;;;;;;;;;4825631;29;20030;-73
2021/08/12 09:33:41;;;;;;;16.23;10.18;;;;;;;;;;4812036;29;20034;-74
2021/08/12 09:36:26;;;;;;;15.88;9.07;;;;;;;;;;4809498;29;20034;-72
2021/08/12 09:39:15;;;;;;;21.67;9.68;;;;;;;;;;4808973;29;20066;-71
2021/08/12 09:41:49;;;;;;;20.50;9.05;;;;;;;;;;4812461;29;20041;-72
2021/08/12 09:44:52;;;;;;;15.30;7.18;;;;;;;;;;4828281;29;20037;-74
2021/08/12 09:47:23;;;;;;;16.83;7.97;;;;;;;;;;4776230;29;20064;-73
2021/08/12 09:49:51;;;;;;;19.20;7.57;;;;;;;;;;4814928;29;20034;-74
2021/08/12 09:52:33;;;;;;;18.95;7.25;;;;;;;;;;4808834;29;20042;-74
2021/08/12 09:55:18;;;;;;;21.17;8.43;;;;;;;;;;4830479;29;20141;-73
2021/08/12 09:57:48;;;;;;;14.00;8.10;;;;;;;;;;4813194;29;20726;-73
2021/08/12 10:00:23;;;;;;;17.67;7.45;;;;;;;;;;4820638;29;20647;-74
2021/08/12 10:02:49;;;;;;;12.85;7.45;;;;;;;;;;4814709;29;20031;-73
2021/08/12 10:05:15;;;;;;;15.23;8.77;;;;;;;;;;4830955;29;20824;-74
2021/08/12 10:07:50;;;;;;;15.27;8.10;;;;;;;;;;4829849;29;20038;-76
2021/08/12 10:10:20;;;;;;;22.25;10.05;;;;;;;;;;4814119;29;20053;-74
2021/08/12 10:12:52;;;;;;;16.70;8.63;;;;;;;;;;4812262;29;20395;-73
2021/08/12 10:15:26;;;;;;;17.05;10.32;;;;;;;;;;4825106;29;20081;-72
2021/08/12 10:17:54;;;;;;;16.95;7.68;;;;;;;;;;4817583;29;20530;-72
2021/08/12 10:20:46;;;;;;;20.00;8.55;;;;;;;;;;4825816;29;20411;-73
2021/08/12 10:23:12;;;;;;;19.17;9.02;;;;;;;;;;4823039;29;20103;-74
2021/08/12 10:25:39;;;;;;;13.10;7.70;;;;;;;;;;4821748;29;20042;-73
2021/08/12 10:28:07;;;;;;;16.80;7.78;;;;;;;;;;4819717;29;20121;-72
2021/08/12 10:30:33;;;;;;;16.45;9.80;;;;;;;;;;4816468;29;20049;-73
2021/08/12 10:33:03;;;;;;;20.23;9.48;;;;;;;;;;4813843;29;20452;-73
2021/08/12 10:35:32;;;;;;;18.30;7.95;;;;;;;;;;4815043;29;20026;-72
2021/08/12 10:37:59;;;;;;;19.13;9.20;;;;;;;;;;4811686;29;20088;-71
2021/08/12 10:40:28;;;;;;;22.00;10.77;;;;;;;;;;4809863;29;20034;-71
2021/08/12 10:42:55;;;;;;;12.93;8.00;;;;;;;;;;4812946;29;20248;-73
2021/08/12 10:45:23;;;;;;;16.35;8.18;;;;;;;;;;4812630;29;20089;-72
2021/08/12 10:47:56;;;;;;;15.88;8.02;;;;;;;;;;4815606;29;20065;-73
2021/08/12 10:50:34;;;;;;;17.55;7.72;;;;;;;;;;4806593;29;20787;-72
2021/08/12 10:53:15;;;;;;;16.23;7.57;;;;;;;;;;4812695;29;20100;-73
2021/08/12 10:55:40;;;;;;;15.85;9.15;;;;;;;;;;4813435;29;20666;-72
2021/08/12 11:00:58;;;;;;;11.77;8.00;;;;;;;;;;4809900;29;20137;-74
2021/08/12 11:03:33;;;;;;;17.02;9.05;;;;;;;;;;4813104;29;20534;-72
2021/08/12 11:06:05;;;;;;;21.08;7.22;;;;;;;;;;4819435;29;20090;-72
2021/08/12 11:11:20;;;;;;;15.82;8.70;;;;;;;;;;4810646;29;20042;-73
2021/08/12 11:13:46;;;;;;;13.90;7.80;;;;;;;;;;4819322;29;20110;-73
2021/08/12 11:16:14;;;;;;;45.53;11.52;;;;;;;;;;4817820;29;20142;-74
2021/08/12 11:18:48;;;;;;;16.30;8.45;;;;;;;;;;4817001;29;20062;-72
2021/08/12 11:21:32;;;;;;;14.63;8.05;;;;;;;;;;4814286;29;20061;-72
2021/08/12 11:23:57;;;;;;;15.68;8.63;;;;;;;;;;4819955;29;20035;-74
2021/08/12 11:26:23;;;;;;;14.93;9.43;;;;;;;;;;4821689;29;20441;-74
2021/08/12 11:28:54;;;;;;;21.45;11.40;;;;;;;;;;4830481;29;20026;-73
2021/08/12 11:31:19;;;;;;;16.42;8.15;;;;;;;;;;4828105;29;20064;-74
2021/08/12 11:33:50;;;;;;;18.50;8.15;;;;;;;;;;4825719;29;20121;-74
2021/08/12 11:36:18;;;;;;;15.48;7.93;;;;;;;;;;4814031;29;20038;-73
2021/08/12 11:38:53;;;;;;;17.13;8.43;;;;;;;;;;4814784;29;20104;-74
2021/08/12 11:41:21;;;;;;;21.20;9.07;;;;;;;;;;4811730;29;20089;-73
2021/08/12 11:43:49;;;;;;;16.42;8.43;;;;;;;;;;4817516;29;20103;-73
2021/08/12 11:46:16;;;;;;;14.02;7.43;;;;;;;;;;4829317;29;20042;-74
2021/08/12 11:48:42;;;;;;;24.38;9.10;;;;;;;;;;4828356;29;20192;-74
2021/08/12 11:51:09;;;;;;;17.42;8.45;;;;;;;;;;4814404;29;21400;-73
2021/08/12 11:53:48;;;;;;;12.70;7.28;;;;;;;;;;4817516;29;20050;-75
2021/08/12 11:56:15;;;;;;;15.30;7.25;;;;;;;;;;4815592;29;20035;-74
2021/08/12 11:58:45;;;;;;;12.75;7.70;;;;;;;;;;4827464;29;20057;-73
2021/08/12 12:01:14;;;;;;;18.38;9.48;;;;;;;;;;4820108;29;21917;-74
2021/08/12 12:03:40;;;;;;;19.58;8.55;;;;;;;;;;4814808;29;20030;-73
2021/08/12 12:06:05;;;;;;;18.50;8.48;;;;;;;;;;4822375;29;20117;-73
2021/08/12 12:08:31;;;;;;;16.92;9.10;;;;;;;;;;4828783;29;20140;-73
2021/08/12 12:11:08;;;;;;;14.52;7.15;;;;;;;;;;4812980;29;20090;-73
2021/08/12 12:13:33;;;;;;;19.63;8.07;;;;;;;;;;4814805;29;20121;-74
2021/08/12 12:15:59;;;;;;;13.70;6.85;;;;;;;;;;4819658;29;20220;-74
2021/08/12 12:18:31;;;;;;;17.70;6.72;;;;;;;;;;4814912;29;20068;-75
2021/08/12 12:21:17;;;;;;;17.80;8.02;;;;;;;;;;4830192;29;20038;-74
2021/08/12 12:23:45;;;;;;;14.73;6.63;;;;;;;;;;4820488;29;20116;-72
2021/08/12 12:26:25;;;;;;;15.10;6.95;;;;;;;;;;4821516;29;20050;-75
2021/08/12 12:28:51;;;;;;;14.75;7.22;;;;;;;;;;4815993;29;20125;-74
2021/08/12 12:31:20;;;;;;;17.90;8.18;;;;;;;;;;4816498;29;20037;-74
2021/08/12 12:34:01;;;;;;;12.98;6.80;;;;;;;;;;4826605;29;20125;-74
2021/08/12 12:36:31;;;;;;;15.52;7.53;;;;;;;;;;4818605;29;20045;-75
2021/08/12 12:38:57;;;;;;;14.32;7.03;;;;;;;;;;4809803;29;20046;-73
2021/08/12 12:41:24;;;;;;;12.95;6.75;;;;;;;;;;4808786;29;20536;-74
2021/08/12 12:44:05;;;;;;;12.98;5.75;;;;;;;;;;4805672;29;20031;-74
2021/08/12 12:46:31;;;;;;;10.30;6.28;;;;;;;;;;4824548;29;20042;-74
2021/08/12 12:48:56;;;;;;;18.75;8.85;;;;;;;;;;4810368;29;20035;-75
2021/08/12 12:51:26;;;;;;;11.70;6.85;;;;;;;;;;4805919;29;20427;-74
2021/08/12 12:53:52;;;;;;;14.38;6.93;;;;;;;;;;4810149;29;20468;-76
2021/08/12 12:56:25;;;;;;;12.48;6.40;;;;;;;;;;4801442;29;20042;-74
2021/08/12 12:58:51;;;;;;;14.40;7.32;;;;;;;;;;4804722;29;20030;-77
2021/08/12 13:01:25;;;;;;;12.90;7.63;;;;;;;;;;4816057;29;20061;-76
2021/08/12 13:03:59;;;;;;;14.55;7.00;;;;;;;;;;4801020;29;20035;-77
2021/08/12 13:06:42;;;;;;;10.25;6.78;;;;;;;;;;4805975;29;20544;-76
2021/08/12 13:09:27;;;;;;;17.55;6.85;;;;;;;;;;4800268;29;20045;-76
2021/08/12 13:11:53;;;;;;;19.15;7.72;;;;;;;;;;4803078;29;20034;-76
2021/08/12 13:14:18;;;;;;;13.68;8.27;;;;;;;;;;4801274;29;20566;-77
2021/08/12 13:16:50;;;;;;;12.48;6.68;;;;;;;;;;4817108;29;20492;-74
2021/08/12 13:19:23;;;;;;;14.45;7.45;;;;;;;;;;4817490;29;20049;-74
2021/08/12 13:21:51;;;;;;;13.88;7.50;;;;;;;;;;4812004;29;20387;-75
2021/08/12 13:24:20;;;;;;;11.05;6.18;;;;;;;;;;4802765;29;20031;-76
2021/08/12 13:26:55;;;;;;;12.75;6.47;;;;;;;;;;4817470;29;20473;-73
2021/08/12 13:29:30;;;;;;;12.50;6.43;;;;;;;;;;4818943;29;20041;-76
2021/08/12 13:32:09;;;;;;;13.20;7.00;;;;;;;;;;4803222;29;20407;-76
2021/08/12 13:34:37;;;;;;;11.98;7.50;;;;;;;;;;4816806;29;20042;-77
2021/08/12 13:37:04;;;;;;;17.15;7.53;;;;;;;;;;4821355;29;20034;-77
2021/08/12 13:39:30;;;;;;;12.77;6.80;;;;;;;;;;4827695;29;20985;-76
2021/08/12 13:41:58;;;;;;;14.02;6.90;;;;;;;;;;4811892;29;20419;-73
2021/08/12 13:44:26;;;;;;;14.85;7.20;;;;;;;;;;4828540;29;20053;-76
2021/08/12 13:46:53;;;;;;;12.63;6.95;;;;;;;;;;4820909;29;20655;-76
2021/08/12 13:49:21;;;;;;;12.82;7.30;;;;;;;;;;4816270;29;20042;-75
2021/08/12 13:51:47;;;;;;;13.13;6.53;;;;;;;;;;4821197;29;20042;-75
2021/08/12 13:54:12;;;;;;;12.75;6.53;;;;;;;;;;4818526;29;20062;-75
2021/08/12 13:56:38;;;;;;;12.82;8.25;;;;;;;;;;4831540;29;20356;-73
2021/08/12 13:59:04;;;;;;;11.68;7.38;;;;;;;;;;4815432;29;20454;-75
2021/08/12 14:01:30;;;;;;;13.82;7.28;;;;;;;;;;4809296;29;20153;-74
2021/08/12 14:03:57;;;;;;;13.05;7.53;;;;;;;;;;4827473;29;20700;-73
2021/08/12 14:06:23;;;;;;;14.70;7.70;;;;;;;;;;4811049;29;20034;-72
2021/08/12 14:08:48;;;;;;;12.73;7.90;;;;;;;;;;4825497;29;20494;-73
2021/08/12 14:11:14;;;;;;;15.10;7.75;;;;;;;;;;4811358;29;20034;-73
2021/08/12 14:13:40;;;;;;;20.17;8.98;;;;;;;;;;4824336;29;20049;-72
2021/08/12 14:16:06;;;;;;;20.58;8.68;;;;;;;;;;4809875;29;20038;-73
2021/08/12 14:18:33;;;;;;;18.40;7.95;;;;;;;;;;4812883;29;20542;-71
2021/08/12 14:20:59;;;;;;;19.13;8.07;;;;;;;;;;4809836;29;20113;-75
2021/08/12 14:23:25;;;;;;;11.43;6.63;;;;;;;;;;4814032;29;20399;-74
2021/08/12 14:25:50;;;;;;;14.70;7.55;;;;;;;;;;4812035;29;20038;-72
2021/08/12 14:28:16;;;;;;;22.08;7.85;;;;;;;;;;4817661;29;20437;-73
2021/08/12 14:30:41;;;;;;;14.23;7.25;;;;;;;;;;4815777;29;20042;-72
2021/08/12 14:33:07;;;;;;;13.60;7.45;;;;;;;;;;4826958;29;20477;-73
2021/08/12 14:35:32;;;;;;;13.70;8.07;;;;;;;;;;4815020;29;20091;-72
2021/08/12 14:37:58;;;;;;;14.27;7.53;;;;;;;;;;4815828;29;20498;-74